Georgetown, KY (40324)

9:57 AM EDT on April 29, 2017 (GMT -0400)
North Elkhorn Creek | | Change Station
Active Advisory: Flash Flood Watch Active Notice: Flash Flood Watch

Elev 817 ft 38.23 °N, 84.55 °W | Updated 2 minutes ago

Partly Cloudy
Partly Cloudy
66.4 °F
Feels Like 66.4 °F
N
0.0
Wind Variable Wind from NE
Gusts 1.1 mph

Today
High -- | Low -- °F
--% Chance of Precip.
Yesterday
High -- | Low -- °F
Precip. -- in
Pressure 30.04 in
Visibility 10.0 miles
Clouds Clear
Dew Point 66 °F
Humidity 99%
Rainfall 0.95 in
Snow Depth Not available.
6:43 AM 8:27 PM
Waxing Crescent, 14% visible
METAR KLEX 291354Z 19009KT 10SM CLR 23/19 A3006 RMK AO2 SLP171 T02330189
Pressure 30.04 in
Visibility 10.0 miles
Clouds Clear
Dew Point 66 °F
Humidity 99%
Rainfall 0.95 in
Snow Depth Not available.
6:43 AM 8:27 PM
Waxing Crescent, 14% visible
METAR KLEX 291354Z 19009KT 10SM CLR 23/19 A3006 RMK AO2 SLP171 T02330189

Get Your Daily Forecast Email!

Thanks for signing up!

Be on the lookout for a verification email in your inbox.

You'll start receiving severe weather alerts in your inbox..

×

10-Day Weather Forecast

Almanac

Astronomy

Apr. 29, 2017 Rise Set
Actual Time
Civil Twilight
Nautical Twilight
Astronomical Twilight
Moon
Length of Visible Light
Length of Day
Tomorrow will be .
, % of the Moon is Illuminated

Today's Extremes

State Highs State Lows

Community

WunderPhotos

WunderBlog® & News

Nearby

Air Quality

  Air Quality AQ Index Pollutant
Not available.

Snow Depth

Station Depth Elevation

Earthquake Activity

City Distance Mag. Time & Date
Minimum magnitude displayed is 2.5.

Coastal Water Temperatures

Place Temperature

Stations

Nearby Weather Stations

Station Location Temp. Windchill Dew Point Humidity Wind Precip. Elev Updated Type
                   

Watches & Warnings

Flash Flood Watch
Issued: 2:50 AM CDT Apr. 29, 2017 – National Weather Service

... Flash Flood Watch remains in effect until 11 am EDT /10 am
CDT/ this morning...

The Flash Flood Watch continues for

* portions of southern Indiana and north central Kentucky.

* Until 11 am EDT /10 am CDT/ this morning

* a stalled frontal boundary will continue to be the focus for
thunderstorms this morning. Some locations may receive
additional rainfall amounts of 1-1.5 inches on top of rain that
has already fallen.

Precautionary/preparedness actions...

A Flash Flood Watch means that conditions may develop that lead
to flash flooding. Flash flooding, especially overnight, is a
very dangerous situation.

You should monitor later forecasts and be prepared to take action
should flash flood warnings be issued.



Eer